createdAt,value
2016-10-17T00:00:07.151Z,0
2016-10-17T00:01:21.229Z,0
2016-10-17T00:02:06.421Z,0
2016-10-17T00:03:06.226Z,0
2016-10-17T00:04:20.921Z,0
2016-10-17T00:05:06.854Z,0
2016-10-17T00:06:06.194Z,0
2016-10-17T00:07:06.488Z,0
2016-10-17T00:08:06.070Z,0
2016-10-17T00:09:06.061Z,0
2016-10-17T00:10:06.395Z,0
2016-10-17T00:11:06.305Z,0
2016-10-17T00:12:06.275Z,0
2016-10-17T00:13:20.654Z,0
2016-10-17T00:14:05.924Z,0
2016-10-17T00:15:20.622Z,0
2016-10-17T00:16:05.880Z,0
2016-10-17T00:17:20.594Z,0
2016-10-17T00:18:06.390Z,0
2016-10-17T00:19:05.834Z,0
2016-10-17T00:20:05.775Z,0
2016-10-17T00:21:05.884Z,0
2016-10-17T00:22:05.896Z,0
2016-10-17T00:23:06.209Z,0
2016-10-17T00:24:05.637Z,0
2016-10-17T00:25:05.581Z,0
2016-10-17T00:26:06.346Z,0
2016-10-17T00:27:05.885Z,0
2016-10-17T00:28:20.229Z,0
2016-10-17T00:29:05.489Z,0
2016-10-17T00:30:05.481Z,0
2016-10-17T00:31:06.468Z,0
2016-10-17T00:32:07.421Z,0
2016-10-17T00:33:05.448Z,0
2016-10-17T00:34:05.720Z,0
2016-10-17T00:35:05.348Z,0
2016-10-17T00:36:05.279Z,0
2016-10-17T00:37:05.268Z,0
2016-10-17T00:38:05.624Z,0
2016-10-17T00:39:05.606Z,0
2016-10-17T00:40:05.201Z,0
2016-10-17T00:41:05.882Z,0
2016-10-17T00:42:05.162Z,0
2016-10-17T00:43:05.114Z,0
2016-10-17T00:44:05.095Z,0
2016-10-17T00:45:05.420Z,0
2016-10-17T00:46:05.029Z,0
2016-10-17T00:47:05.002Z,0
2016-10-17T00:48:05.056Z,0
2016-10-17T00:49:04.965Z,0
2016-10-17T00:50:05.562Z,0
2016-10-17T00:51:04.916Z,0
2016-10-17T00:53:04.837Z,0
2016-10-17T00:54:19.564Z,0
2016-10-17T00:55:05.030Z,0
2016-10-17T00:56:04.857Z,0
2016-10-17T00:57:05.059Z,0
2016-10-17T00:58:04.737Z,0
2016-10-17T00:59:04.725Z,0
2016-10-17T01:00:04.773Z,0
2016-10-17T01:01:05.054Z,0
2016-10-17T01:02:04.947Z,0
2016-10-17T01:03:04.982Z,0
2016-10-17T01:04:04.526Z,0
2016-10-17T01:05:04.509Z,0
2016-10-17T01:06:04.474Z,0
2016-10-17T01:07:04.437Z,0
2016-10-17T01:08:04.419Z,0
2016-10-17T01:09:04.464Z,0
2016-10-17T01:10:04.361Z,0
2016-10-17T01:11:04.351Z,0
2016-10-17T01:12:04.331Z,0
2016-10-17T01:13:04.272Z,0
2016-10-17T01:14:04.236Z,0
2016-10-17T01:15:04.208Z,0
2016-10-17T01:16:04.834Z,0
2016-10-17T01:17:04.189Z,0
2016-10-17T01:18:04.458Z,0
2016-10-17T01:19:04.101Z,0
2016-10-17T01:20:04.131Z,0
2016-10-17T01:21:04.058Z,0
2016-10-17T01:22:04.025Z,0
2016-10-17T01:23:03.992Z,0
2016-10-17T01:24:03.965Z,0
2016-10-17T01:25:04.840Z,0
2016-10-17T01:26:18.675Z,0
2016-10-17T01:27:03.893Z,0
2016-10-17T01:28:03.851Z,0
2016-10-17T01:29:03.875Z,0
2016-10-17T01:30:04.191Z,0
2016-10-17T01:31:03.816Z,0
2016-10-17T01:32:04.272Z,0
2016-10-17T01:33:04.103Z,0
2016-10-17T01:34:04.784Z,0
2016-10-17T01:35:18.414Z,0
2016-10-17T01:36:03.667Z,0
2016-10-17T01:37:18.711Z,0
2016-10-17T01:38:03.575Z,0
2016-10-17T01:39:04.266Z,0
2016-10-17T01:40:03.529Z,0
2016-10-17T01:41:03.507Z,0
2016-10-17T01:42:03.470Z,0
2016-10-17T01:43:03.448Z,0
2016-10-17T01:44:03.415Z,0
2016-10-17T01:45:03.394Z,0
2016-10-17T01:46:18.112Z,0
2016-10-17T01:47:04.075Z,0
2016-10-17T01:48:03.308Z,0
2016-10-17T01:49:03.317Z,0
2016-10-17T01:50:03.241Z,0
2016-10-17T01:51:03.283Z,0
2016-10-17T01:52:03.224Z,0
2016-10-17T01:53:03.169Z,0
2016-10-17T01:54:03.650Z,0
2016-10-17T01:55:03.203Z,0
2016-10-17T01:56:03.943Z,0
2016-10-17T01:57:03.089Z,0
2016-10-17T01:58:03.045Z,0
2016-10-17T01:59:17.746Z,0
2016-10-17T02:00:03.007Z,0
2016-10-17T02:01:03.918Z,0
2016-10-17T02:02:02.945Z,0
2016-10-17T02:03:02.903Z,0
2016-10-17T02:04:02.870Z,0
2016-10-17T02:05:03.217Z,0
2016-10-17T02:06:02.814Z,0
2016-10-17T02:07:03.000Z,0
2016-10-17T02:08:02.847Z,0
2016-10-17T02:09:17.850Z,0
2016-10-17T02:10:02.742Z,0
2016-10-17T02:12:02.650Z,0
2016-10-17T02:13:17.350Z,0
2016-10-17T02:14:02.617Z,0
2016-10-17T02:15:17.603Z,0
2016-10-17T02:16:03.329Z,0
2016-10-17T02:17:17.249Z,0
2016-10-17T02:18:02.579Z,0
2016-10-17T02:19:02.871Z,0
2016-10-17T02:20:02.574Z,0
2016-10-17T02:21:02.796Z,0
2016-10-17T02:22:02.470Z,0
2016-10-17T02:23:02.419Z,0
2016-10-17T02:24:17.126Z,0
2016-10-17T02:25:02.392Z,0
2016-10-17T02:26:02.277Z,0
2016-10-17T02:27:02.293Z,0
2016-10-17T02:28:16.972Z,0
2016-10-17T02:29:02.194Z,0
2016-10-17T02:30:02.151Z,0
2016-10-17T02:31:02.844Z,0
2016-10-17T02:32:02.119Z,0
2016-10-17T02:33:02.095Z,0
2016-10-17T02:34:02.055Z,0
2016-10-17T02:35:17.531Z,0
2016-10-17T02:36:02.023Z,0
2016-10-17T02:37:16.719Z,0
2016-10-17T02:38:02.370Z,0
2016-10-17T02:39:01.921Z,0
2016-10-17T02:40:01.894Z,0
2016-10-17T02:41:01.880Z,0
2016-10-17T02:42:02.198Z,0
2016-10-17T02:43:01.834Z,0
2016-10-17T02:44:01.787Z,0
2016-10-17T02:45:01.781Z,0
2016-10-17T02:46:16.847Z,0
2016-10-17T02:47:01.741Z,0
2016-10-17T02:48:01.712Z,0
2016-10-17T02:49:01.661Z,0
2016-10-17T02:50:01.734Z,0
2016-10-17T02:51:17.021Z,0
2016-10-17T02:52:01.960Z,0
2016-10-17T02:53:02.186Z,0
2016-10-17T02:54:01.610Z,0
2016-10-17T02:55:16.950Z,0
2016-10-17T02:56:01.495Z,0
2016-10-17T02:57:01.432Z,0
2016-10-17T02:58:01.797Z,0
2016-10-17T02:59:02.030Z,0
2016-10-17T03:00:01.793Z,0
2016-10-17T03:01:01.483Z,0
2016-10-17T03:02:01.390Z,0
2016-10-17T03:03:01.269Z,0
2016-10-17T03:04:01.275Z,0
2016-10-17T03:05:01.997Z,0
2016-10-17T03:06:01.223Z,0
2016-10-17T03:07:01.350Z,0
2016-10-17T03:08:01.128Z,0
2016-10-17T03:09:01.157Z,0
2016-10-17T03:11:01.058Z,0
2016-10-17T03:12:01.087Z,0
2016-10-17T03:13:00.996Z,0
2016-10-17T03:14:01.030Z,0
2016-10-17T03:15:16.000Z,0
2016-10-17T03:16:00.931Z,0
2016-10-17T03:18:00.873Z,0
2016-10-17T03:19:01.260Z,0
2016-10-17T03:20:00.828Z,0
2016-10-17T03:21:00.804Z,0
2016-10-17T03:22:00.753Z,0
2016-10-17T03:23:00.745Z,0
2016-10-17T03:24:15.449Z,0
2016-10-17T03:25:01.049Z,0
2016-10-17T03:26:00.670Z,0
2016-10-17T03:27:00.624Z,0
2016-10-17T03:28:00.606Z,0
2016-10-17T03:29:15.286Z,0
2016-10-17T03:30:00.652Z,0
2016-10-17T03:31:15.266Z,0
2016-10-17T03:32:00.873Z,0
2016-10-17T03:33:08.741Z,0
2016-10-17T03:34:00.473Z,0
2016-10-17T03:35:15.482Z,0
2016-10-17T03:36:00.494Z,0
2016-10-17T03:37:00.374Z,0
2016-10-17T03:38:00.346Z,0
2016-10-17T03:39:00.822Z,0
2016-10-17T03:40:00.337Z,0
2016-10-17T03:41:00.643Z,0
2016-10-17T03:42:00.258Z,0
2016-10-17T03:43:00.229Z,0
2016-10-17T03:44:00.263Z,0
2016-10-17T03:45:00.230Z,0
2016-10-17T03:46:00.206Z,0
2016-10-17T03:47:00.142Z,0
2016-10-17T03:48:00.485Z,0
2016-10-17T03:50:00.377Z,0
2016-10-17T03:51:00.030Z,0
2016-10-17T03:52:00.665Z,0
2016-10-17T03:52:59.902Z,0
2016-10-17T03:54:01.004Z,0
2016-10-17T03:54:59.896Z,0
2016-10-17T03:55:59.873Z,0
2016-10-17T03:57:00.209Z,0
2016-10-17T03:57:59.766Z,0
2016-10-17T03:59:00.154Z,0
2016-10-17T04:00:00.155Z,0
2016-10-17T04:01:00.214Z,0
2016-10-17T04:02:14.383Z,0
2016-10-17T04:03:00.024Z,0
2016-10-17T04:03:59.609Z,0
2016-10-17T04:04:59.979Z,0
2016-10-17T04:05:59.586Z,0
2016-10-17T04:06:59.645Z,0
2016-10-17T04:07:59.872Z,0
2016-10-17T04:08:59.502Z,0
2016-10-17T04:09:59.462Z,0
2016-10-17T04:10:59.426Z,0
2016-10-17T04:11:59.389Z,0
2016-10-17T04:12:59.725Z,0
2016-10-17T04:13:59.343Z,0
2016-10-17T04:14:59.306Z,0
2016-10-17T04:15:59.313Z,0
2016-10-17T04:16:59.262Z,0
2016-10-17T04:17:59.232Z,0
2016-10-17T04:18:59.240Z,0
2016-10-17T04:19:59.163Z,0
2016-10-17T04:20:59.519Z,0
2016-10-17T04:21:59.498Z,0
2016-10-17T04:22:59.101Z,0
2016-10-17T04:23:59.152Z,0
2016-10-17T04:25:14.479Z,0
2016-10-17T04:25:59.398Z,0
2016-10-17T04:26:58.980Z,0
2016-10-17T04:27:59.028Z,0
2016-10-17T04:28:58.941Z,0
2016-10-17T04:29:59.307Z,0
2016-10-17T04:30:59.717Z,0
2016-10-17T04:31:58.824Z,0
2016-10-17T04:32:58.812Z,0
2016-10-17T04:33:59.145Z,0
2016-10-17T04:34:58.781Z,0
2016-10-17T04:35:59.178Z,0
2016-10-17T04:36:59.061Z,0
2016-10-17T04:37:58.674Z,0
2016-10-17T04:38:58.680Z,0
2016-10-17T04:39:58.645Z,0
2016-10-17T04:41:13.339Z,0
2016-10-17T04:41:58.579Z,0
2016-10-17T04:42:58.989Z,0
2016-10-17T04:43:58.500Z,0
2016-10-17T04:44:58.852Z,0
2016-10-17T04:45:59.233Z,0
2016-10-17T04:46:58.797Z,0
2016-10-17T04:47:58.445Z,0
2016-10-17T04:48:58.405Z,0
2016-10-17T04:49:58.343Z,0
2016-10-17T04:50:58.340Z,0
2016-10-17T04:51:58.643Z,0
2016-10-17T04:52:58.654Z,0
2016-10-17T04:54:13.027Z,0
2016-10-17T04:54:58.626Z,0
2016-10-17T04:56:03.487Z,0
2016-10-17T04:56:58.160Z,0
2016-10-17T04:57:58.171Z,0
2016-10-17T04:58:58.496Z,0
2016-10-17T04:59:58.149Z,0
2016-10-17T05:00:59.003Z,0
2016-10-17T05:01:58.014Z,0
2016-10-17T05:02:58.010Z,0
2016-10-17T05:03:58.058Z,0
2016-10-17T05:04:58.821Z,0
2016-10-17T05:05:58.042Z,0
2016-10-17T05:07:57.931Z,0
2016-10-17T05:08:58.222Z,0
2016-10-17T05:09:57.807Z,0
2016-10-17T05:11:57.827Z,0
2016-10-17T05:12:57.745Z,0
2016-10-17T05:13:57.738Z,0
2016-10-17T05:14:57.785Z,0
2016-10-17T05:15:58.133Z,0
2016-10-17T05:16:57.676Z,0
2016-10-17T05:17:57.635Z,0
2016-10-17T05:18:57.994Z,0
2016-10-17T05:20:12.498Z,0
2016-10-17T05:20:57.848Z,0
2016-10-17T05:21:57.499Z,0
2016-10-17T05:22:57.481Z,0
2016-10-17T05:23:57.574Z,0
2016-10-17T05:24:57.725Z,0
2016-10-17T05:25:57.755Z,0
2016-10-17T05:26:57.332Z,0
2016-10-17T05:27:57.321Z,0
2016-10-17T05:28:57.540Z,0
2016-10-17T05:29:57.418Z,0
2016-10-17T05:30:58.909Z,0
2016-10-17T05:31:57.946Z,0
2016-10-17T05:32:57.529Z,0
2016-10-17T05:33:57.149Z,0
2016-10-17T05:34:57.129Z,0
2016-10-17T05:35:57.194Z,0
2016-10-17T05:37:12.151Z,0
2016-10-17T05:37:57.430Z,0
2016-10-17T05:39:12.106Z,0
2016-10-17T05:39:57.207Z,0
2016-10-17T05:40:57.331Z,0
2016-10-17T05:41:57.275Z,0
2016-10-17T05:42:58.010Z,0
2016-10-17T05:43:57.633Z,0
2016-10-17T05:44:56.883Z,0
2016-10-17T05:46:02.517Z,0
2016-10-17T05:46:56.796Z,0
2016-10-17T05:47:56.791Z,4
2016-10-17T05:48:57.570Z,4
2016-10-17T05:50:11.453Z,4
2016-10-17T05:50:56.700Z,4
2016-10-17T05:51:56.677Z,4
2016-10-17T05:52:57.097Z,4
2016-10-17T05:53:56.597Z,0
2016-10-17T05:54:56.599Z,0
2016-10-17T05:55:57.646Z,4
2016-10-17T05:57:11.236Z,4
2016-10-17T05:57:56.847Z,4
2016-10-17T05:59:11.893Z,4
2016-10-17T05:59:56.465Z,4
2016-10-17T06:00:56.515Z,4
2016-10-17T06:01:56.443Z,8
2016-10-17T06:02:56.433Z,8
2016-10-17T06:04:11.096Z,4
2016-10-17T06:04:56.311Z,4
2016-10-17T06:05:56.647Z,8
2016-10-17T06:06:56.265Z,8
2016-10-17T06:07:56.218Z,4
2016-10-17T06:08:56.237Z,8
2016-10-17T06:09:56.165Z,12
2016-10-17T06:11:11.209Z,12
2016-10-17T06:11:56.100Z,8
2016-10-17T06:12:56.083Z,12
2016-10-17T06:13:56.116Z,12
2016-10-17T06:14:56.040Z,12
2016-10-17T06:15:56.571Z,12
2016-10-17T06:16:55.970Z,12
2016-10-17T06:18:10.888Z,16
2016-10-17T06:18:56.315Z,16
2016-10-17T06:19:55.871Z,16
2016-10-17T06:20:56.694Z,20
2016-10-17T06:21:55.831Z,20
2016-10-17T06:22:56.172Z,20
2016-10-17T06:23:56.155Z,20
2016-10-17T06:24:56.146Z,20
2016-10-17T06:25:56.107Z,24
2016-10-17T06:26:56.172Z,24
2016-10-17T06:27:56.033Z,28
2016-10-17T06:28:56.027Z,28
2016-10-17T06:29:56.391Z,28
2016-10-17T06:30:55.615Z,32
2016-10-17T06:31:55.561Z,32
2016-10-17T06:32:56.218Z,32
2016-10-17T06:34:10.254Z,36
2016-10-17T06:34:55.806Z,36
2016-10-17T06:36:10.766Z,36
2016-10-17T06:36:56.210Z,36
2016-10-17T06:37:55.769Z,36
2016-10-17T06:38:55.787Z,40
2016-10-17T06:39:55.714Z,40
2016-10-17T06:41:11.243Z,44
2016-10-17T06:41:55.659Z,44
2016-10-17T06:42:55.627Z,48
2016-10-17T06:43:55.338Z,48
2016-10-17T06:44:55.220Z,52
2016-10-17T06:45:55.188Z,52
2016-10-17T06:46:55.358Z,56
2016-10-17T06:48:09.859Z,56
2016-10-17T06:48:55.214Z,60
2016-10-17T06:50:09.839Z,60
2016-10-17T06:50:55.141Z,64
2016-10-17T06:51:55.015Z,64
2016-10-17T06:52:55.011Z,64
2016-10-17T06:53:55.694Z,64
2016-10-17T06:54:54.922Z,64
2016-10-17T06:55:54.918Z,60
2016-10-17T06:56:54.924Z,64
2016-10-17T06:57:54.867Z,64
2016-10-17T06:58:55.320Z,60
2016-10-17T07:00:01.113Z,60
2016-10-17T07:00:55.491Z,60
2016-10-17T07:01:54.879Z,60
2016-10-17T07:02:54.716Z,64
2016-10-17T07:03:54.711Z,64
2016-10-17T07:05:54.908Z,68
2016-10-17T07:06:54.711Z,72
2016-10-17T07:07:54.584Z,72
2016-10-17T07:08:54.574Z,76
2016-10-17T07:09:54.564Z,80
2016-10-17T07:10:55.880Z,80
2016-10-17T07:11:54.499Z,80
2016-10-17T07:12:54.441Z,84
2016-10-17T07:13:54.415Z,88
2016-10-17T07:14:54.765Z,88
2016-10-17T07:15:54.755Z,96
2016-10-17T07:16:54.357Z,92
2016-10-17T07:17:54.350Z,96
2016-10-17T07:18:54.277Z,96
2016-10-17T07:19:54.282Z,96
2016-10-17T07:20:55.073Z,104
2016-10-17T07:21:54.581Z,108
2016-10-17T07:22:55.612Z,108
2016-10-17T07:23:54.735Z,112
2016-10-17T07:24:54.632Z,112
2016-10-17T07:25:54.461Z,120
2016-10-17T07:26:54.445Z,120
2016-10-17T07:27:54.073Z,124
2016-10-17T07:28:54.023Z,124
2016-10-17T07:29:54.371Z,124
2016-10-17T07:30:54.385Z,128
2016-10-17T07:31:53.989Z,132
2016-10-17T07:32:54.271Z,128
2016-10-17T07:33:54.288Z,128
2016-10-17T07:34:54.615Z,124
2016-10-17T07:35:53.864Z,128
2016-10-17T07:37:53.786Z,128
2016-10-17T07:39:09.300Z,132
2016-10-17T07:39:54.108Z,136
2016-10-17T07:41:08.780Z,136
2016-10-17T07:41:54.409Z,144
2016-10-17T07:42:54.335Z,140
2016-10-17T07:43:54.338Z,132
2016-10-17T07:44:54.182Z,136
2016-10-17T07:45:53.580Z,144
2016-10-17T07:46:53.771Z,140
2016-10-17T07:48:08.261Z,148
2016-10-17T07:48:53.562Z,148
2016-10-17T07:49:53.518Z,148
2016-10-17T07:50:53.472Z,160
2016-10-17T07:51:53.506Z,164
2016-10-17T07:52:53.401Z,168
2016-10-17T07:53:53.418Z,180
2016-10-17T07:54:53.341Z,184
2016-10-17T07:55:54.555Z,192
2016-10-17T07:56:53.357Z,200
2016-10-17T07:57:53.691Z,204
2016-10-17T07:58:53.254Z,196
2016-10-17T08:01:08.649Z,204
2016-10-17T08:01:53.928Z,196
2016-10-17T08:03:53.081Z,192
2016-10-17T08:05:08.088Z,184
2016-10-17T08:05:53.811Z,176
2016-10-17T08:07:08.101Z,156
2016-10-17T08:07:54.054Z,152
2016-10-17T08:09:07.777Z,136
2016-10-17T08:09:53.375Z,128
2016-10-17T08:10:54.379Z,124
2016-10-17T08:11:53.243Z,112
2016-10-17T08:12:52.869Z,112
2016-10-17T08:13:53.220Z,116
2016-10-17T08:14:53.308Z,128
2016-10-17T08:15:53.138Z,136
2016-10-17T08:16:52.788Z,136
2016-10-17T08:17:53.095Z,132
2016-10-17T08:18:53.245Z,128
2016-10-17T08:19:52.749Z,112
2016-10-17T08:20:53.051Z,112
2016-10-17T08:21:53.426Z,116
2016-10-17T08:22:52.622Z,120
2016-10-17T08:23:53.462Z,116
2016-10-17T08:24:52.471Z,124
2016-10-17T08:25:52.930Z,132
2016-10-17T08:26:52.496Z,136
2016-10-17T08:27:52.892Z,144
2016-10-17T08:28:52.429Z,136
2016-10-17T08:29:53.078Z,132
2016-10-17T08:31:07.988Z,132
2016-10-17T08:31:52.357Z,132
2016-10-17T08:32:52.779Z,132
2016-10-17T08:33:52.692Z,132
2016-10-17T08:34:52.535Z,140
2016-10-17T08:35:52.245Z,144
2016-10-17T08:39:38.983Z,168
2016-10-17T08:40:40.274Z,180
2016-10-17T08:41:39.171Z,184
2016-10-17T08:42:39.092Z,188
2016-10-17T08:43:39.193Z,200
2016-10-17T08:44:38.492Z,208
2016-10-17T08:45:38.974Z,220
2016-10-17T08:46:39.912Z,224
2016-10-17T08:48:38.861Z,232
2016-10-17T08:49:59.324Z,248
2016-10-17T08:50:38.411Z,248
2016-10-17T08:51:38.693Z,260
2016-10-17T08:52:38.949Z,244
2016-10-17T08:53:38.665Z,232
2016-10-17T08:54:39.190Z,232
2016-10-17T08:55:39.138Z,240
2016-10-17T08:56:39.003Z,240
2016-10-17T08:57:38.585Z,244
2016-10-17T08:58:53.176Z,252
2016-10-17T08:59:38.588Z,252
2016-10-17T09:00:38.297Z,236
2016-10-17T09:01:52.777Z,228
2016-10-17T09:02:38.519Z,220
2016-10-17T09:03:37.977Z,216
2016-10-17T09:04:38.410Z,224
2016-10-17T09:05:53.477Z,240
2016-10-17T09:06:38.320Z,260
2016-10-17T09:08:38.270Z,288
2016-10-17T09:09:52.904Z,312
2016-10-17T09:10:38.583Z,308
2016-10-17T09:11:52.981Z,296
2016-10-17T09:12:38.169Z,324
2016-10-17T09:13:38.532Z,336
2016-10-17T09:14:38.347Z,320
2016-10-17T09:15:38.067Z,312
2016-10-17T09:16:53.585Z,304
2016-10-17T09:17:38.069Z,296
2016-10-17T09:18:53.610Z,288
2016-10-17T09:19:38.004Z,280
2016-10-17T09:21:22.386Z,276
2016-10-17T09:21:39.625Z,284
2016-10-17T09:22:38.007Z,276
2016-10-17T09:23:37.956Z,268
2016-10-17T09:24:37.698Z,276
2016-10-17T09:26:37.381Z,272
2016-10-17T09:27:52.452Z,252
2016-10-17T09:28:37.373Z,268
2016-10-17T09:29:52.054Z,280
2016-10-17T09:30:37.423Z,252
2016-10-17T09:31:51.971Z,252
2016-10-17T09:32:38.527Z,256
2016-10-17T09:33:37.888Z,272
2016-10-17T09:34:37.663Z,280
2016-10-17T09:35:38.603Z,292
2016-10-17T09:36:37.535Z,296
2016-10-17T09:37:37.939Z,288
2016-10-17T09:38:37.144Z,288
2016-10-17T09:39:37.163Z,288
2016-10-17T09:40:38.344Z,284
2016-10-17T09:41:37.160Z,280
2016-10-17T09:42:37.003Z,276
2016-10-17T09:43:37.333Z,288
2016-10-17T09:44:52.403Z,308
2016-10-17T09:45:37.435Z,316
2016-10-17T09:46:38.735Z,324
2016-10-17T09:47:38.142Z,300
2016-10-17T09:48:37.263Z,344
2016-10-17T09:49:37.786Z,340
2016-10-17T09:50:36.775Z,340
2016-10-17T09:51:37.249Z,356
2016-10-17T09:52:37.215Z,364
2016-10-17T09:53:36.806Z,368
2016-10-17T09:54:38.038Z,348
2016-10-17T09:55:37.476Z,352
2016-10-17T09:56:37.157Z,380
2016-10-17T09:57:36.644Z,384
2016-10-17T09:58:52.403Z,388
2016-10-17T09:59:36.732Z,408
2016-10-17T10:00:37.880Z,444
2016-10-17T10:01:37.786Z,472
2016-10-17T10:02:36.922Z,496
2016-10-17T10:03:37.155Z,476
2016-10-17T10:04:36.961Z,464
2016-10-17T10:05:37.408Z,436
2016-10-17T10:06:36.715Z,444
2016-10-17T10:07:36.725Z,460
2016-10-17T10:08:36.809Z,448
2016-10-17T10:09:36.369Z,412
2016-10-17T10:10:36.336Z,416
2016-10-17T10:11:36.672Z,412
2016-10-17T10:12:36.390Z,404
2016-10-17T10:13:50.880Z,396
2016-10-17T10:14:51.459Z,420
2016-10-17T10:15:36.591Z,428
2016-10-17T10:16:36.650Z,412
2016-10-17T10:17:36.664Z,408
2016-10-17T10:18:51.179Z,408
2016-10-17T10:19:37.112Z,416
2016-10-17T10:20:36.177Z,424
2016-10-17T10:21:36.929Z,420
2016-10-17T10:22:36.231Z,412
2016-10-17T10:23:37.051Z,412
2016-10-17T10:24:36.444Z,412
2016-10-17T10:26:37.122Z,424
2016-10-17T10:27:36.853Z,440
2016-10-17T10:28:36.888Z,440
2016-10-17T10:29:35.861Z,440
2016-10-17T10:30:36.765Z,468
2016-10-17T10:31:35.863Z,472
2016-10-17T10:32:50.890Z,472
2016-10-17T10:33:36.247Z,472
2016-10-17T10:34:36.348Z,464
2016-10-17T10:35:36.584Z,472
2016-10-17T10:36:35.868Z,496
2016-10-17T10:37:35.808Z,504
2016-10-17T10:38:36.570Z,504
2016-10-17T10:40:36.661Z,496
2016-10-17T10:41:50.310Z,488
2016-10-17T10:42:36.301Z,500
2016-10-17T10:43:50.161Z,496
2016-10-17T10:44:35.485Z,484
2016-10-17T10:45:35.668Z,500
2016-10-17T10:46:35.820Z,476
2016-10-17T10:47:35.460Z,472
2016-10-17T10:48:35.913Z,516
2016-10-17T10:49:35.334Z,604
2016-10-17T10:50:50.166Z,568
2016-10-17T10:51:35.810Z,508
2016-10-17T10:52:36.666Z,596
2016-10-17T10:53:35.573Z,704
2016-10-17T10:54:35.584Z,724
2016-10-17T10:55:42.385Z,604
2016-10-17T10:56:35.325Z,520
2016-10-17T10:57:50.687Z,464
2016-10-17T10:58:35.742Z,488
2016-10-17T10:59:50.273Z,476
2016-10-17T11:00:35.071Z,472
2016-10-17T11:01:35.981Z,484
2016-10-17T11:02:36.318Z,544
2016-10-17T11:06:35.902Z,588
2016-10-17T11:07:21.803Z,592
2016-10-17T11:08:21.270Z,604
2016-10-17T11:09:21.290Z,568
2016-10-17T11:10:21.180Z,544
2016-10-17T11:11:22.922Z,536
2016-10-17T11:12:21.395Z,472
2016-10-17T11:13:21.366Z,408
2016-10-17T11:14:35.627Z,416
2016-10-17T11:15:21.333Z,400
2016-10-17T11:16:22.548Z,388
2016-10-17T11:17:21.031Z,384
2016-10-17T11:18:35.778Z,384
2016-10-17T11:19:22.269Z,380
2016-10-17T11:20:21.147Z,372
2016-10-17T11:21:21.191Z,372
2016-10-17T11:22:21.176Z,380
2016-10-17T11:23:21.152Z,412
2016-10-17T11:24:20.970Z,444
2016-10-17T11:26:44.238Z,500
2016-10-17T11:27:43.746Z,492
2016-10-17T11:28:44.091Z,464
2016-10-17T11:29:59.224Z,452
2016-10-17T11:30:43.717Z,460
2016-10-17T11:31:43.747Z,472
2016-10-17T11:32:43.781Z,504
2016-10-17T11:33:44.011Z,528
2016-10-17T11:34:44.388Z,520
2016-10-17T11:35:44.131Z,488
2016-10-17T11:36:44.267Z,464
2016-10-17T11:37:43.961Z,460
2016-10-17T11:38:43.823Z,460
2016-10-17T11:39:43.481Z,460
2016-10-17T11:40:44.813Z,440
2016-10-17T11:41:44.096Z,408
2016-10-17T11:42:43.867Z,396
2016-10-17T11:44:43.304Z,352
2016-10-17T11:45:58.445Z,340
2016-10-17T11:46:43.262Z,356
2016-10-17T11:47:57.958Z,340
2016-10-17T11:48:43.498Z,324
2016-10-17T11:49:43.269Z,304
2016-10-17T11:50:43.622Z,288
2016-10-17T11:51:58.271Z,312
2016-10-17T11:52:43.799Z,344
2016-10-17T11:55:35.657Z,340
2016-10-17T11:56:06.186Z,332
2016-10-17T11:57:20.921Z,300
2016-10-17T11:58:06.618Z,292
2016-10-17T11:59:06.162Z,284
2016-10-17T12:00:06.568Z,256
2016-10-17T12:01:06.475Z,240
2016-10-17T12:02:06.681Z,228
2016-10-17T12:03:06.847Z,228
2016-10-17T12:04:20.713Z,232
2016-10-17T12:05:06.044Z,228
2016-10-17T12:06:06.766Z,236
2016-10-17T12:07:06.352Z,252
2016-10-17T12:08:20.643Z,260
2016-10-17T12:09:06.056Z,268
2016-10-17T12:10:05.883Z,284
2016-10-17T12:11:07.085Z,300
2016-10-17T12:12:06.560Z,288
2016-10-17T12:14:06.851Z,276
2016-10-17T12:15:05.799Z,288
2016-10-17T12:16:06.483Z,304
2016-10-17T12:17:20.817Z,304
2016-10-17T12:18:06.533Z,292
2016-10-17T12:19:20.874Z,284
2016-10-17T12:20:06.312Z,272
2016-10-17T12:21:06.545Z,256
2016-10-17T12:22:05.906Z,252
2016-10-17T12:23:07.712Z,248
2016-10-17T12:24:06.304Z,252
2016-10-17T12:25:05.875Z,252
2016-10-17T12:26:05.463Z,252
2016-10-17T12:27:06.092Z,256
2016-10-17T12:28:05.417Z,252
2016-10-17T12:29:06.515Z,252
2016-10-17T12:30:05.375Z,256
2016-10-17T12:31:05.491Z,264
2016-10-17T12:32:06.947Z,264
2016-10-17T12:33:06.220Z,260
2016-10-17T12:34:06.002Z,248
2016-10-17T12:35:05.271Z,248
2016-10-17T12:36:05.885Z,240
2016-10-17T12:37:05.626Z,232
2016-10-17T12:38:05.163Z,224
2016-10-17T12:39:19.916Z,208
2016-10-17T12:40:05.608Z,196
2016-10-17T12:41:20.531Z,180
2016-10-17T12:42:05.159Z,176
2016-10-17T12:43:19.749Z,172
2016-10-17T12:45:05.359Z,184
2016-10-17T12:46:20.329Z,188
2016-10-17T12:47:05.308Z,188
2016-10-17T12:48:05.341Z,180
2016-10-17T12:49:05.032Z,172
2016-10-17T12:50:04.912Z,160
2016-10-17T12:51:05.223Z,156
2016-10-17T12:52:04.925Z,144
2016-10-17T12:53:05.655Z,140
2016-10-17T12:54:04.828Z,132
2016-10-17T12:55:05.249Z,132
2016-10-17T12:56:05.381Z,132
2016-10-17T12:57:05.296Z,132
2016-10-17T12:58:24.759Z,136
2016-10-17T12:59:04.803Z,136
2016-10-17T13:00:05.744Z,132
2016-10-17T13:01:05.638Z,136
2016-10-17T13:02:19.358Z,132
2016-10-17T13:03:19.356Z,132
2016-10-17T13:04:05.154Z,132
2016-10-17T13:05:04.814Z,136
2016-10-17T13:06:05.470Z,132
2016-10-17T13:07:05.142Z,136
2016-10-17T13:08:05.114Z,132
2016-10-17T13:09:04.574Z,132
2016-10-17T13:10:04.735Z,136
2016-10-17T13:11:04.759Z,136
2016-10-17T13:12:04.839Z,136
2016-10-17T13:14:04.745Z,136
2016-10-17T13:15:04.612Z,140
2016-10-17T13:16:04.717Z,136
2016-10-17T13:17:19.249Z,136
2016-10-17T13:18:04.197Z,132
2016-10-17T13:19:05.215Z,128
2016-10-17T13:20:04.568Z,128
2016-10-17T13:21:04.429Z,132
2016-10-17T13:22:04.441Z,136
2016-10-17T13:23:05.341Z,140
2016-10-17T13:24:05.067Z,140
2016-10-17T13:25:04.570Z,136
2016-10-17T13:26:19.315Z,132
2016-10-17T13:27:04.020Z,132
2016-10-17T13:28:18.933Z,136
2016-10-17T13:29:04.982Z,136
2016-10-17T13:30:19.031Z,140
2016-10-17T13:31:03.826Z,140
2016-10-17T13:32:04.508Z,140
2016-10-17T13:33:04.135Z,140
2016-10-17T13:34:03.811Z,136
2016-10-17T13:35:03.777Z,140
2016-10-17T13:37:41.540Z,136
2016-10-17T13:38:27.305Z,140
2016-10-17T13:39:28.632Z,140
2016-10-17T13:40:26.747Z,140
2016-10-17T13:41:27.127Z,140
2016-10-17T13:42:26.695Z,140
2016-10-17T13:43:27.118Z,140
2016-10-17T13:44:41.438Z,140
2016-10-17T13:45:26.657Z,144
2016-10-17T13:46:27.591Z,152
2016-10-17T13:47:26.598Z,148
2016-10-17T13:48:26.582Z,152
2016-10-17T13:49:27.212Z,152
2016-10-17T13:50:27.246Z,152
2016-10-17T13:52:41.212Z,136
2016-10-17T13:53:41.497Z,136
2016-10-17T13:54:27.122Z,132
2016-10-17T13:55:26.857Z,132
2016-10-17T13:56:27.256Z,132
2016-10-17T13:57:26.670Z,136
2016-10-17T13:58:26.876Z,132
2016-10-17T14:01:04.746Z,132
2016-10-17T14:01:49.966Z,132
2016-10-17T14:02:49.348Z,132
2016-10-17T14:03:49.465Z,132
2016-10-17T14:04:49.862Z,128
2016-10-17T14:05:49.614Z,124
2016-10-17T14:06:49.661Z,120
2016-10-17T14:07:49.581Z,128
2016-10-17T14:08:49.202Z,120
2016-10-17T14:09:50.274Z,120
2016-10-17T14:10:49.701Z,112
2016-10-17T14:11:49.480Z,104
2016-10-17T14:12:49.154Z,100
2016-10-17T14:14:03.893Z,108
2016-10-17T14:18:50.856Z,92
2016-10-17T14:19:36.534Z,88
2016-10-17T14:20:36.610Z,84
2016-10-17T14:21:50.410Z,84
2016-10-17T14:22:35.738Z,84
2016-10-17T14:23:35.458Z,76
2016-10-17T14:25:36.539Z,84
2016-10-17T14:26:35.720Z,96
2016-10-17T14:27:49.919Z,108
2016-10-17T14:28:36.390Z,100
2016-10-17T14:29:49.796Z,100
2016-10-17T14:30:35.135Z,104
2016-10-17T14:31:36.446Z,104
2016-10-17T14:32:35.422Z,112
2016-10-17T14:33:35.091Z,116
2016-10-17T14:34:35.816Z,116
2016-10-17T14:36:49.663Z,124
2016-10-17T14:37:49.604Z,132
2016-10-17T14:38:35.291Z,140
2016-10-17T14:39:53.568Z,148
2016-10-17T14:40:35.306Z,148
2016-10-17T14:41:35.168Z,156
2016-10-17T14:42:49.887Z,148
2016-10-17T14:43:37.196Z,140
2016-10-17T14:44:34.734Z,136
2016-10-17T14:45:34.796Z,136
2016-10-17T14:46:34.776Z,132
2016-10-17T14:47:35.102Z,132
2016-10-17T14:48:34.739Z,136
2016-10-17T14:49:34.726Z,148
2016-10-17T14:50:35.003Z,160